TimeEDT,TemperatureF,Dew PointF,Humidity,Sea Level PressureIn,VisibilityMPH,Wind Direction,Wind SpeedMPH,Gust SpeedMPH,PrecipitationIn,Events,Conditions,WindDirDegrees,DateUTC
12:53 AM,48.9,43.0,80,30.09,10.0,Calm,Calm,-,N/A,,Clear,0,2013-09-24 04:53:00
1:53 AM,46.0,42.1,86,30.10,10.0,Calm,Calm,-,N/A,,Clear,0,2013-09-24 05:53:00
2:53 AM,45.0,41.0,86,30.10,10.0,SW,3.5,-,N/A,,Clear,220,2013-09-24 06:53:00
3:53 AM,44.1,39.9,85,30.10,10.0,SW,3.5,-,N/A,,Clear,230,2013-09-24 07:53:00
4:53 AM,44.1,39.9,85,30.10,10.0,Calm,Calm,-,N/A,,Clear,0,2013-09-24 08:53:00
5:53 AM,43.0,39.0,86,30.10,10.0,Calm,Calm,-,N/A,,Clear,0,2013-09-24 09:53:00
6:53 AM,43.0,39.0,86,30.12,10.0,Calm,Calm,-,N/A,,Clear,0,2013-09-24 10:53:00
7:53 AM,42.1,39.0,89,30.13,9.0,Calm,Calm,-,N/A,,Clear,0,2013-09-24 11:53:00
8:53 AM,50.0,44.1,80,30.12,10.0,Calm,Calm,-,N/A,,Clear,0,2013-09-24 12:53:00
9:53 AM,55.9,46.0,69,30.11,10.0,Calm,Calm,-,N/A,,Clear,0,2013-09-24 13:53:00
10:53 AM,60.1,42.1,51,30.10,10.0,West,4.6,-,N/A,,Clear,260,2013-09-24 14:53:00
11:53 AM,62.1,42.1,48,30.08,10.0,Variable,3.5,-,N/A,,Clear,0,2013-09-24 15:53:00
12:53 PM,64.9,41.0,42,30.04,10.0,Variable,4.6,-,N/A,,Clear,0,2013-09-24 16:53:00
1:53 PM,68.0,41.0,37,30.01,10.0,WSW,5.8,-,N/A,,Clear,250,2013-09-24 17:53:00
2:53 PM,69.1,41.0,36,29.99,10.0,West,4.6,-,N/A,,Clear,260,2013-09-24 18:53:00
3:53 PM,71.1,42.1,35,29.96,10.0,Calm,Calm,-,N/A,,Clear,0,2013-09-24 19:53:00
4:53 PM,72.0,41.0,33,29.96,10.0,Calm,Calm,-,N/A,,Clear,0,2013-09-24 20:53:00
5:53 PM,71.1,42.1,35,29.96,10.0,Calm,Calm,-,N/A,,Clear,0,2013-09-24 21:53:00
6:53 PM,63.0,46.9,56,29.97,10.0,Calm,Calm,-,N/A,,Clear,0,2013-09-24 22:53:00
7:53 PM,55.9,46.0,69,29.99,10.0,Calm,Calm,-,N/A,,Clear,0,2013-09-24 23:53:00
8:53 PM,53.1,46.0,77,29.99,10.0,Calm,Calm,-,N/A,,Clear,0,2013-09-25 00:53:00
9:53 PM,51.1,45.0,80,29.98,10.0,Calm,Calm,-,N/A,,Clear,0,2013-09-25 01:53:00
10:53 PM,48.9,44.1,83,29.97,10.0,Calm,Calm,-,N/A,,Clear,0,2013-09-25 02:53:00
11:53 PM,48.9,44.1,83,29.97,10.0,SW,4.6,-,N/A,,Clear,230,2013-09-25 03:53:00